createdAt,value
2018-09-24T00:01:19.504Z,83.72
2018-09-24T00:03:48.230Z,83.46
2018-09-24T00:06:16.448Z,84.91
2018-09-24T00:08:44.684Z,83.68
2018-09-24T00:11:12.906Z,83.90
2018-09-24T00:13:41.202Z,83.56
2018-09-24T00:16:09.519Z,82.86
2018-09-24T00:18:37.849Z,83.14
2018-09-24T00:21:06.084Z,83.88
2018-09-24T00:23:34.315Z,83.21
2018-09-24T00:26:02.517Z,84.34
2018-09-24T00:28:30.739Z,83.48
2018-09-24T00:30:59.822Z,83.63
2018-09-24T00:33:28.002Z,83.55
2018-09-24T00:35:56.128Z,83.63
2018-09-24T00:38:24.294Z,82.60
2018-09-24T00:40:52.436Z,83.34
2018-09-24T00:43:20.612Z,84.32
2018-09-24T00:45:49.165Z,84.34
2018-09-24T00:48:17.403Z,83.45
2018-09-24T00:50:45.552Z,84.18
2018-09-24T00:53:13.719Z,83.62
2018-09-24T00:55:41.960Z,84.88
2018-09-24T00:58:10.212Z,84.46
2018-09-24T01:00:38.466Z,82.87
2018-09-24T01:03:06.859Z,82.69
2018-09-24T01:05:35.182Z,83.50
2018-09-24T01:08:03.946Z,83.25
2018-09-24T01:10:32.111Z,83.34
2018-09-24T01:13:00.245Z,83.32
2018-09-24T01:15:28.561Z,84.24
2018-09-24T01:17:56.851Z,84.41
2018-09-24T01:20:25.016Z,84.30
2018-09-24T01:22:53.271Z,83.43
2018-09-24T01:25:21.354Z,84.08
2018-09-24T01:27:49.623Z,84.22
2018-09-24T01:30:17.964Z,84.00
2018-09-24T01:32:46.126Z,85.28
2018-09-24T01:35:14.310Z,85.12
2018-09-24T01:37:42.502Z,83.79
2018-09-24T01:40:10.687Z,84.18
2018-09-24T01:42:38.886Z,84.59
2018-09-24T01:45:07.076Z,83.31
2018-09-24T01:47:35.258Z,84.71
2018-09-24T01:50:06.578Z,84.37
2018-09-24T01:52:34.759Z,83.63
2018-09-24T01:55:03.707Z,83.40
2018-09-24T01:57:31.860Z,83.29
2018-09-24T02:00:00.072Z,83.11
2018-09-24T02:02:28.296Z,83.93
2018-09-24T02:04:56.506Z,84.68
2018-09-24T02:07:24.702Z,84.28
2018-09-24T02:09:52.972Z,84.58
2018-09-24T02:12:21.223Z,84.64
2018-09-24T02:14:49.504Z,84.14
2018-09-24T02:17:20.523Z,83.84
2018-09-24T02:19:49.683Z,84.19
2018-09-24T02:22:26.277Z,84.26
2018-09-24T02:24:55.161Z,85.58
2018-09-24T02:27:23.309Z,84.75
2018-09-24T02:29:51.506Z,84.44
2018-09-24T02:32:19.750Z,84.45
2018-09-24T02:34:49.039Z,85.43
2018-09-24T02:37:18.121Z,83.87
2018-09-24T02:39:46.500Z,84.04
2018-09-24T02:42:15.284Z,84.42
2018-09-24T02:44:43.497Z,84.19
2018-09-24T02:47:11.681Z,84.24
2018-09-24T02:49:39.830Z,83.81
2018-09-24T02:52:08.071Z,83.81
2018-09-24T02:54:36.789Z,83.43
2018-09-24T02:57:05.051Z,83.80
2018-09-24T02:59:33.222Z,84.24
2018-09-24T03:02:01.440Z,84.32
2018-09-24T03:04:29.663Z,84.29
2018-09-24T03:06:57.881Z,84.70
2018-09-24T03:09:26.076Z,85.06
2018-09-24T03:11:54.399Z,84.47
2018-09-24T03:14:24.194Z,84.45
2018-09-24T03:16:53.115Z,85.19
2018-09-24T03:19:21.398Z,85.22
2018-09-24T03:21:49.652Z,85.58
2018-09-24T03:24:17.871Z,85.91
2018-09-24T03:26:46.031Z,86.51
2018-09-24T03:29:20.485Z,86.66
2018-09-24T03:31:48.745Z,87.37
2018-09-24T03:34:18.131Z,87.57
2018-09-24T03:36:47.127Z,88.39
2018-09-24T03:39:15.356Z,88.59
2018-09-24T03:41:43.972Z,88.76
2018-09-24T03:44:12.286Z,89.40
2018-09-24T03:46:40.940Z,89.57
2018-09-24T03:49:09.335Z,89.31
2018-09-24T03:51:37.498Z,88.93
2018-09-24T03:54:05.681Z,88.97
2018-09-24T03:56:33.862Z,88.74
2018-09-24T03:59:02.776Z,88.41
2018-09-24T04:01:30.834Z,89.54
2018-09-24T04:04:04.405Z,89.41
2018-09-24T04:06:37.961Z,89.50
2018-09-24T04:09:13.735Z,90.17
2018-09-24T04:11:47.773Z,89.72
2018-09-24T04:14:21.337Z,89.62
2018-09-24T04:16:55.195Z,90.31
2018-09-24T04:19:28.971Z,89.37
2018-09-24T04:22:02.522Z,89.03
2018-09-24T04:24:36.035Z,89.23
2018-09-24T04:27:09.567Z,89.65
2018-09-24T04:29:43.133Z,90.51
2018-09-24T04:32:16.764Z,91.44
2018-09-24T04:34:50.240Z,91.68
2018-09-24T04:37:23.924Z,91.08
2018-09-24T04:39:57.506Z,91.57
2018-09-24T04:42:31.187Z,91.86
2018-09-24T04:45:04.830Z,92.35
2018-09-24T04:47:38.566Z,92.85
2018-09-24T04:50:12.272Z,93.61
2018-09-24T04:52:45.782Z,93.50
2018-09-24T04:55:19.131Z,93.63
2018-09-24T04:57:52.644Z,94.35
2018-09-24T05:00:25.988Z,95.49
2018-09-24T05:02:59.644Z,95.39
2018-09-24T05:05:33.166Z,95.06
2018-09-24T05:08:06.816Z,94.02
2018-09-24T05:10:40.307Z,93.72
2018-09-24T05:13:13.855Z,94.71
2018-09-24T05:15:47.711Z,95.11
2018-09-24T05:18:21.232Z,95.58
2018-09-24T05:20:54.929Z,95.92
2018-09-24T05:23:28.352Z,96.26
2018-09-24T05:26:01.761Z,96.03
2018-09-24T05:28:35.260Z,96.56
2018-09-24T05:31:08.886Z,95.95
2018-09-24T05:33:42.606Z,95.67
2018-09-24T05:36:16.050Z,94.61
2018-09-24T05:38:49.611Z,94.22
2018-09-24T05:41:23.177Z,94.79
2018-09-24T05:43:56.843Z,93.55
2018-09-24T05:46:30.547Z,93.54
2018-09-24T05:49:04.316Z,93.55
2018-09-24T05:51:37.891Z,93.48
2018-09-24T05:54:11.770Z,93.05
2018-09-24T05:56:45.246Z,92.14
2018-09-24T05:59:18.882Z,92.57
2018-09-24T06:01:52.538Z,90.09
2018-09-24T06:04:26.144Z,89.83
2018-09-24T06:06:59.988Z,90.09
2018-09-24T06:09:33.457Z,88.61
2018-09-24T06:12:07.070Z,88.24
2018-09-24T06:14:40.657Z,87.22
2018-09-24T06:17:14.318Z,85.87
2018-09-24T06:19:48.023Z,87.78
2018-09-24T06:22:21.467Z,87.37
2018-09-24T06:24:55.090Z,86.53
2018-09-24T06:27:28.787Z,87.59
2018-09-24T06:30:02.937Z,87.08
2018-09-24T06:32:36.397Z,87.17
2018-09-24T06:35:10.048Z,87.98
2018-09-24T06:37:43.599Z,87.95
2018-09-24T06:40:17.347Z,87.35
2018-09-24T06:42:50.816Z,86.55
2018-09-24T06:45:24.313Z,86.84
2018-09-24T06:47:57.923Z,85.73
2018-09-24T06:50:31.531Z,85.56
2018-09-24T06:53:05.123Z,85.86
2018-09-24T06:55:38.720Z,85.54
2018-09-24T06:58:12.904Z,85.45
2018-09-24T07:00:46.485Z,84.51
2018-09-24T07:03:20.847Z,84.19
2018-09-24T07:05:54.880Z,84.61
2018-09-24T07:08:28.342Z,83.31
2018-09-24T07:11:01.864Z,82.49
2018-09-24T07:13:35.449Z,81.67
2018-09-24T07:16:08.912Z,82.01
2018-09-24T07:18:42.542Z,80.53
2018-09-24T07:21:16.130Z,81.16
2018-09-24T07:23:49.707Z,81.44
2018-09-24T07:26:23.170Z,80.82
2018-09-24T07:28:56.699Z,81.45
2018-09-24T07:31:30.233Z,80.37
2018-09-24T07:34:03.812Z,79.34
2018-09-24T07:36:37.511Z,79.47
2018-09-24T07:39:14.571Z,79.08
2018-09-24T07:41:48.938Z,78.37
2018-09-24T07:44:22.524Z,77.11
2018-09-24T07:46:56.068Z,76.97
2018-09-24T07:49:29.640Z,75.97
2018-09-24T07:52:03.199Z,76.30
2018-09-24T07:54:36.761Z,76.59
2018-09-24T07:57:10.455Z,75.12
2018-09-24T07:59:44.022Z,75.25
2018-09-24T08:02:17.663Z,75.53
2018-09-24T08:04:51.201Z,74.46
2018-09-24T08:07:24.685Z,74.54
2018-09-24T08:09:58.107Z,73.34
2018-09-24T08:12:31.578Z,71.17
2018-09-24T08:15:05.225Z,71.07
2018-09-24T08:17:38.784Z,70.39
2018-09-24T08:20:12.275Z,67.37
2018-09-24T08:22:45.931Z,69.03
2018-09-24T08:25:19.518Z,70.44
2018-09-24T08:27:53.419Z,70.71
2018-09-24T08:30:27.027Z,67.66
2018-09-24T08:33:00.696Z,68.06
2018-09-24T08:35:34.461Z,67.11
2018-09-24T08:38:07.988Z,65.92
2018-09-24T08:40:41.554Z,66.20
2018-09-24T08:43:15.128Z,65.88
2018-09-24T08:45:48.796Z,67.42
2018-09-24T08:48:22.397Z,64.96
2018-09-24T08:50:55.850Z,63.29
2018-09-24T08:53:29.657Z,64.46
2018-09-24T08:56:03.075Z,61.90
2018-09-24T08:58:36.838Z,63.80
2018-09-24T09:01:10.500Z,61.50
2018-09-24T09:03:44.250Z,61.42
2018-09-24T09:06:17.903Z,61.21
2018-09-24T09:08:51.601Z,61.01
2018-09-24T09:11:25.333Z,62.97
2018-09-24T09:13:59.159Z,61.28
2018-09-24T09:16:32.810Z,59.62
2018-09-24T09:19:06.409Z,60.63
2018-09-24T09:21:40.110Z,60.20
2018-09-24T09:24:13.835Z,59.63
2018-09-24T09:26:47.522Z,59.00
2018-09-24T09:29:21.188Z,56.96
2018-09-24T09:31:55.347Z,57.52
2018-09-24T09:34:29.042Z,59.81
2018-09-24T09:37:02.654Z,60.02
2018-09-24T09:39:36.082Z,59.08
2018-09-24T09:42:09.683Z,58.13
2018-09-24T09:44:43.305Z,55.69
2018-09-24T09:47:16.928Z,55.59
2018-09-24T09:49:50.654Z,55.82
2018-09-24T09:52:24.199Z,56.68
2018-09-24T09:54:57.701Z,56.03
2018-09-24T09:57:31.321Z,56.29
2018-09-24T10:00:04.798Z,54.63
2018-09-24T10:02:38.420Z,54.64
2018-09-24T10:05:12.219Z,55.89
2018-09-24T10:07:45.864Z,55.77
2018-09-24T10:10:19.471Z,56.99
2018-09-24T10:12:53.136Z,56.45
2018-09-24T10:15:26.678Z,53.50
2018-09-24T10:18:00.739Z,55.90
2018-09-24T10:20:34.431Z,55.64
2018-09-24T10:23:08.008Z,52.97
2018-09-24T10:25:41.671Z,52.47
2018-09-24T10:28:15.424Z,53.00
2018-09-24T10:30:48.941Z,53.46
2018-09-24T10:33:22.583Z,54.24
2018-09-24T10:35:56.269Z,54.23
2018-09-24T10:38:29.883Z,54.74
2018-09-24T10:41:03.531Z,53.31
2018-09-24T10:43:37.244Z,52.18
2018-09-24T10:46:11.003Z,50.36
2018-09-24T10:48:44.412Z,47.49
2018-09-24T10:51:17.969Z,48.16
2018-09-24T10:53:51.641Z,48.24
2018-09-24T10:56:25.268Z,48.75
2018-09-24T10:58:59.083Z,50.30
2018-09-24T11:01:32.740Z,50.37
2018-09-24T11:04:06.531Z,50.04
2018-09-24T11:06:40.125Z,50.53
2018-09-24T11:09:14.265Z,48.54
2018-09-24T11:11:47.860Z,48.01
2018-09-24T11:14:21.533Z,48.75
2018-09-24T11:16:55.283Z,51.36
2018-09-24T11:19:29.236Z,50.13
2018-09-24T11:22:02.973Z,49.44
2018-09-24T11:24:36.556Z,48.87
2018-09-24T11:27:09.956Z,49.46
2018-09-24T11:29:43.684Z,51.67
2018-09-24T11:32:17.307Z,50.93
2018-09-24T11:34:50.856Z,51.81
2018-09-24T11:37:24.449Z,52.75
2018-09-24T11:39:58.024Z,49.41
2018-09-24T11:42:32.793Z,48.10
2018-09-24T11:45:08.983Z,49.69
2018-09-24T11:47:43.467Z,47.06
2018-09-24T11:50:18.565Z,47.76
2018-09-24T11:52:52.165Z,49.00
2018-09-24T11:55:26.219Z,47.45
2018-09-24T11:58:00.335Z,44.38
2018-09-24T12:00:33.838Z,43.18
2018-09-24T12:03:07.637Z,43.79
2018-09-24T12:05:41.479Z,44.19
2018-09-24T12:08:14.944Z,46.01
2018-09-24T12:10:48.640Z,46.15
2018-09-24T12:13:22.256Z,47.38
2018-09-24T12:15:55.887Z,49.24
2018-09-24T12:18:29.474Z,49.49
2018-09-24T12:21:03.095Z,50.76
2018-09-24T12:23:36.657Z,51.15
2018-09-24T12:26:10.205Z,47.73
2018-09-24T12:28:43.799Z,49.07
2018-09-24T12:31:17.523Z,47.80
2018-09-24T12:33:51.043Z,48.33
2018-09-24T12:36:24.710Z,45.12
2018-09-24T12:38:58.270Z,43.76
2018-09-24T12:41:32.093Z,44.96
2018-09-24T12:44:05.698Z,42.37
2018-09-24T12:46:39.291Z,42.76
2018-09-24T12:49:12.908Z,43.86
2018-09-24T12:51:46.454Z,46.31
2018-09-24T12:54:20.194Z,47.65
2018-09-24T12:56:53.695Z,47.39
2018-09-24T12:59:27.259Z,48.16
2018-09-24T13:02:00.972Z,47.48
2018-09-24T13:04:34.662Z,45.09
2018-09-24T13:07:08.291Z,45.91
2018-09-24T13:09:41.738Z,46.03
2018-09-24T13:12:15.216Z,47.05
2018-09-24T13:14:48.864Z,46.81
2018-09-24T13:17:22.464Z,47.94
2018-09-24T13:19:56.063Z,45.83
2018-09-24T13:22:29.564Z,45.61
2018-09-24T13:25:04.013Z,45.27
2018-09-24T13:27:37.488Z,45.63
2018-09-24T13:30:11.149Z,47.41
2018-09-24T13:32:44.929Z,44.66
2018-09-24T13:35:18.597Z,45.10
2018-09-24T13:37:52.189Z,46.44
2018-09-24T13:40:25.901Z,49.57
2018-09-24T13:42:59.548Z,48.09
2018-09-24T13:45:33.217Z,48.26
2018-09-24T13:48:06.754Z,48.39
2018-09-24T13:50:40.352Z,48.90
2018-09-24T13:53:13.979Z,48.01
2018-09-24T13:55:47.558Z,47.29
2018-09-24T13:58:21.253Z,44.83
2018-09-24T14:00:54.769Z,45.40
2018-09-24T14:03:28.308Z,45.90
2018-09-24T14:06:01.889Z,44.68
2018-09-24T14:08:35.663Z,42.43
2018-09-24T14:11:09.237Z,41.86
2018-09-24T14:13:42.973Z,42.40
2018-09-24T14:16:16.617Z,41.77
2018-09-24T14:18:50.313Z,41.54
2018-09-24T14:21:23.824Z,41.47
2018-09-24T14:23:57.456Z,41.72
2018-09-24T14:26:31.060Z,41.06
2018-09-24T14:29:04.775Z,40.28
2018-09-24T14:31:38.441Z,39.62
2018-09-24T14:34:12.218Z,39.99
2018-09-24T14:36:45.892Z,40.24
2018-09-24T14:39:19.509Z,40.45
2018-09-24T14:41:53.243Z,41.00
2018-09-24T14:44:26.926Z,40.70
2018-09-24T14:47:00.382Z,41.40
2018-09-24T14:49:33.980Z,40.66
2018-09-24T14:52:07.683Z,40.16
2018-09-24T14:54:41.279Z,38.99
2018-09-24T14:57:14.740Z,39.51
2018-09-24T14:59:48.413Z,38.81
2018-09-24T15:02:21.968Z,40.44
2018-09-24T15:04:55.582Z,40.53
2018-09-24T15:07:29.361Z,40.73
2018-09-24T15:10:03.003Z,40.29
2018-09-24T15:12:36.616Z,40.16
2018-09-24T15:15:10.060Z,41.46
2018-09-24T15:17:43.671Z,40.53
2018-09-24T15:20:17.475Z,41.75
2018-09-24T15:22:51.188Z,41.90
2018-09-24T15:25:24.802Z,42.02
2018-09-24T15:27:58.234Z,41.49
2018-09-24T15:30:31.871Z,42.85
2018-09-24T15:33:05.495Z,42.07
2018-09-24T15:35:39.431Z,41.89
2018-09-24T15:38:13.269Z,42.55
2018-09-24T15:40:46.965Z,42.48
2018-09-24T15:43:20.429Z,43.40
2018-09-24T15:45:54.111Z,44.70
2018-09-24T15:48:27.740Z,44.58
2018-09-24T15:51:01.528Z,44.22
2018-09-24T15:53:35.157Z,44.47
2018-09-24T15:56:08.759Z,43.94
2018-09-24T15:58:42.682Z,44.17
2018-09-24T16:01:16.406Z,44.59
2018-09-24T16:03:49.962Z,45.08
2018-09-24T16:06:23.462Z,44.43
2018-09-24T16:08:57.065Z,45.07
2018-09-24T16:11:30.539Z,44.05
2018-09-24T16:14:03.896Z,44.91
2018-09-24T16:16:37.472Z,45.64
2018-09-24T16:19:11.769Z,45.79
2018-09-24T16:21:45.279Z,46.66
2018-09-24T16:24:18.846Z,47.59
2018-09-24T16:26:52.380Z,48.38
2018-09-24T16:29:26.095Z,49.04
2018-09-24T16:31:59.672Z,47.79
2018-09-24T16:34:33.289Z,48.56
2018-09-24T16:37:06.971Z,48.67
2018-09-24T16:39:40.611Z,49.16
2018-09-24T16:42:14.249Z,48.25
2018-09-24T16:44:47.683Z,48.68
2018-09-24T16:47:21.292Z,49.18
2018-09-24T16:49:55.006Z,49.76
2018-09-24T16:52:28.865Z,49.81
2018-09-24T16:55:02.535Z,50.00
2018-09-24T16:57:36.032Z,52.44
2018-09-24T17:00:09.700Z,56.25
2018-09-24T17:02:44.032Z,51.02
2018-09-24T17:05:18.110Z,51.66
2018-09-24T17:07:51.839Z,51.75
2018-09-24T17:10:25.460Z,52.61
2018-09-24T17:12:59.246Z,53.68
2018-09-24T17:15:32.796Z,54.65
2018-09-24T17:18:06.254Z,52.93
2018-09-24T17:20:39.888Z,56.17
2018-09-24T17:23:13.610Z,56.35
2018-09-24T17:25:47.199Z,54.93
2018-09-24T17:28:20.637Z,56.96
2018-09-24T17:30:55.692Z,55.85
2018-09-24T17:33:29.348Z,57.76
2018-09-24T17:36:09.777Z,57.88
2018-09-24T17:38:43.287Z,60.48
2018-09-24T17:41:18.486Z,61.34
2018-09-24T17:43:52.062Z,60.08
2018-09-24T17:46:25.781Z,61.01
2018-09-24T17:48:59.315Z,63.24
2018-09-24T17:51:32.932Z,61.82
2018-09-24T17:54:06.601Z,61.24
2018-09-24T17:56:40.075Z,62.89
2018-09-24T17:59:13.708Z,65.92
2018-09-24T18:01:47.211Z,64.56
2018-09-24T18:04:20.911Z,65.37
2018-09-24T18:06:54.642Z,64.91
2018-09-24T18:09:28.324Z,65.65
2018-09-24T18:12:01.934Z,64.75
2018-09-24T18:14:35.526Z,65.50
2018-09-24T18:17:09.095Z,66.06
2018-09-24T18:19:42.592Z,66.99
2018-09-24T18:22:16.331Z,68.24
2018-09-24T18:24:50.517Z,66.93
2018-09-24T18:27:24.091Z,67.26
2018-09-24T18:29:57.579Z,67.32
2018-09-24T18:32:31.031Z,67.21
2018-09-24T18:35:04.607Z,67.95
2018-09-24T18:37:38.328Z,68.00
2018-09-24T18:40:11.906Z,68.04
2018-09-24T18:42:45.591Z,66.28
2018-09-24T18:45:19.227Z,66.24
2018-09-24T18:47:52.808Z,67.61
2018-09-24T18:50:26.516Z,70.53
2018-09-24T18:53:00.302Z,68.09
2018-09-24T18:55:33.978Z,68.17
2018-09-24T18:58:07.421Z,71.84
2018-09-24T19:00:41.096Z,70.80
2018-09-24T19:03:14.609Z,70.93
2018-09-24T19:05:48.111Z,72.68
2018-09-24T19:08:21.651Z,72.81
2018-09-24T19:10:55.278Z,73.99
2018-09-24T19:13:28.797Z,74.09
2018-09-24T19:16:02.555Z,74.86
2018-09-24T19:18:36.128Z,76.11
2018-09-24T19:21:09.537Z,75.05
2018-09-24T19:23:43.314Z,76.00
2018-09-24T19:26:16.883Z,75.48
2018-09-24T19:28:50.443Z,75.62
2018-09-24T19:31:24.114Z,75.78
2018-09-24T19:33:57.522Z,74.37
2018-09-24T19:36:30.991Z,75.79
2018-09-24T19:39:04.447Z,75.80
2018-09-24T19:41:38.145Z,76.76
2018-09-24T19:44:11.767Z,74.85
2018-09-24T19:46:46.235Z,74.89
2018-09-24T19:49:19.932Z,75.32
2018-09-24T19:51:53.732Z,74.18
2018-09-24T19:54:27.297Z,73.31
2018-09-24T19:57:00.880Z,72.73
2018-09-24T19:59:34.598Z,74.57
2018-09-24T20:02:08.178Z,75.53
2018-09-24T20:04:41.787Z,75.84
2018-09-24T20:07:15.215Z,76.03
2018-09-24T20:09:48.855Z,76.38
2018-09-24T20:12:22.491Z,75.25
2018-09-24T20:14:55.985Z,76.18
2018-09-24T20:17:29.534Z,74.93
2018-09-24T20:20:03.155Z,75.32
2018-09-24T20:22:36.673Z,75.85
2018-09-24T20:25:10.287Z,75.81
2018-09-24T20:27:44.102Z,75.75
2018-09-24T20:30:17.525Z,75.40
2018-09-24T20:32:51.200Z,75.26
2018-09-24T20:35:24.696Z,75.55
2018-09-24T20:37:58.127Z,76.97
2018-09-24T20:40:31.847Z,76.74
2018-09-24T20:43:05.594Z,76.78
2018-09-24T20:45:39.204Z,74.86
2018-09-24T20:48:12.677Z,74.74
2018-09-24T20:50:46.020Z,75.78
2018-09-24T20:53:19.543Z,76.60
2018-09-24T20:55:53.271Z,76.43
2018-09-24T20:58:26.707Z,75.79
2018-09-24T21:01:00.287Z,78.02
2018-09-24T21:03:33.919Z,75.43
2018-09-24T21:06:07.507Z,77.15
2018-09-24T21:08:41.047Z,78.45
2018-09-24T21:11:14.482Z,76.84
2018-09-24T21:13:48.150Z,78.30
2018-09-24T21:16:21.725Z,80.47
2018-09-24T21:18:55.279Z,81.40
2018-09-24T21:21:28.912Z,82.33
2018-09-24T21:24:02.442Z,81.68
2018-09-24T21:26:35.799Z,81.22
2018-09-24T21:29:09.449Z,79.66
2018-09-24T21:31:42.899Z,75.33
2018-09-24T21:34:16.423Z,75.99
2018-09-24T21:36:50.129Z,74.51
2018-09-24T21:39:24.153Z,74.13
2018-09-24T21:41:57.656Z,75.73
2018-09-24T21:44:31.231Z,74.46
2018-09-24T21:47:04.785Z,75.95
2018-09-24T21:49:38.179Z,74.28
2018-09-24T21:52:11.840Z,75.14
2018-09-24T21:54:45.344Z,75.57
2018-09-24T21:57:19.007Z,74.70
2018-09-24T22:02:52.644Z,74.88
2018-09-24T22:05:26.123Z,76.33
2018-09-24T22:07:59.624Z,76.56
2018-09-24T22:10:33.040Z,75.82
2018-09-24T22:13:06.579Z,77.67
2018-09-24T22:15:40.211Z,77.38
2018-09-24T22:18:13.910Z,77.03
2018-09-24T22:20:47.347Z,77.56
2018-09-24T22:23:21.025Z,79.60
2018-09-24T22:25:54.468Z,80.10
2018-09-24T22:28:28.093Z,81.67
2018-09-24T22:31:01.498Z,82.00
2018-09-24T22:33:35.047Z,82.25
2018-09-24T22:36:08.712Z,83.21
2018-09-24T22:38:42.165Z,82.29
2018-09-24T22:41:15.622Z,82.18
2018-09-24T22:43:49.094Z,81.78
2018-09-24T22:46:22.688Z,81.75
2018-09-24T22:48:56.137Z,82.44
2018-09-24T22:51:29.883Z,82.64
2018-09-24T22:54:03.275Z,84.23
2018-09-24T22:56:36.701Z,84.96
2018-09-24T22:59:10.210Z,85.08
2018-09-24T23:01:43.727Z,86.37
2018-09-24T23:04:17.499Z,86.10
2018-09-24T23:06:51.083Z,85.50
2018-09-24T23:09:24.531Z,85.77
2018-09-24T23:11:58.291Z,85.81
2018-09-24T23:14:31.795Z,84.89
2018-09-24T23:17:05.326Z,84.50
2018-09-24T23:19:38.907Z,82.70
2018-09-24T23:22:12.365Z,83.27
2018-09-24T23:24:45.900Z,82.61
2018-09-24T23:27:19.344Z,82.14
2018-09-24T23:29:52.975Z,83.93
2018-09-24T23:32:26.563Z,82.74
2018-09-24T23:35:00.187Z,82.06
2018-09-24T23:37:33.667Z,82.86
2018-09-24T23:40:14.010Z,84.12
2018-09-24T23:42:47.695Z,84.70
2018-09-24T23:45:21.431Z,86.01
2018-09-24T23:47:55.011Z,86.21
2018-09-24T23:50:28.699Z,86.84
2018-09-24T23:53:02.052Z,87.37
2018-09-24T23:55:35.699Z,87.80
2018-09-24T23:58:09.110Z,87.85
